.
WxDataArchive / Data Records for 2011-01-08
2011-01-07 January 2011 2011-01-09

Data Records for Saturday, 08 January 2011

Time	Temp	Chill	HIndex	Humid	Dewpt	 Wind 	HiWind	WindDir	Rain 	Barom 
-----	----	-----	------	-----	-----	------	------	-------	-----	----- 
00:00	17.2	17.2	17.2	84	13.2	0	3	248	0.00	29.451 
00:05	17.2	17.2	17.2	84	13.2	1	3	248	0.00	29.451 
00:10	17.0	17.0	17.0	84	13.0	1	3	248	0.00	29.451 
00:15	16.9	16.9	16.9	84	12.9	1	3	248	0.00	29.448 
00:20	16.9	16.9	16.9	84	12.9	0	2	248	0.00	29.448 
00:25	16.9	16.9	16.9	84	12.9	1	2	248	0.00	29.448 
00:30	16.9	16.9	16.9	85	13.2	1	2	248	0.00	29.447 
00:35	16.9	16.9	16.9	84	12.9	1	2	248	0.00	29.447 
00:40	16.9	16.9	16.9	84	12.9	0	2	248	0.00	29.447 
00:45	16.9	16.9	16.9	84	12.9	1	3	248	0.00	29.447 
00:50	16.7	16.7	16.7	84	12.7	0	2	248	0.00	29.447 
00:55	16.7	16.7	16.7	84	12.7	0	2	248	0.00	29.447 
01:00	16.5	16.5	16.5	84	12.5	0	2	248	0.00	29.448 
01:05	16.5	16.5	16.5	84	12.5	0	4	248	0.00	29.448 
01:10	16.5	16.5	16.5	84	12.5	1	2	248	0.00	29.448 
01:15	16.5	16.5	16.5	84	12.5	0	2	248	0.00	29.448 
01:20	16.5	16.5	16.5	84	12.5	0	2	248	0.00	29.448 
01:25	16.5	16.5	16.5	84	12.5	1	3	248	0.00	29.448 
01:30	16.5	16.5	16.5	84	12.5	1	3	248	0.00	29.448 
01:35	16.5	16.5	16.5	84	12.5	1	3	248	0.00	29.448 
01:40	16.5	16.5	16.5	84	12.5	1	2	248	0.00	29.448 
01:45	16.4	16.4	16.4	84	12.4	0	2	248	0.00	29.451 
01:50	16.4	16.4	16.4	84	12.4	1	3	248	0.00	29.451 
01:55	16.4	16.4	16.4	84	12.4	0	2	248	0.00	29.451 
02:00	16.4	16.4	16.4	84	12.4	1	3	248	0.00	29.453 
02:05	16.4	16.4	16.4	84	12.4	0	2	248	0.00	29.453 
02:10	16.4	16.4	16.4	84	12.4	1	2	248	0.00	29.453 
02:15	16.4	16.4	16.4	83	12.2	1	3	248	0.00	29.459 
02:20	16.4	16.4	16.4	83	12.2	1	3	248	0.00	29.459 
02:25	16.4	16.4	16.4	83	12.2	1	2	248	0.00	29.459 
02:30	16.4	16.4	16.4	83	12.2	1	3	248	0.00	29.465 
02:35	16.4	16.4	16.4	83	12.2	1	3	248	0.00	29.465 
02:40	16.4	16.4	16.4	83	12.2	1	3	248	0.00	29.465 
02:45	16.4	16.4	16.4	83	12.2	1	2	248	0.00	29.472 
02:50	16.4	16.4	16.4	83	12.2	1	2	248	0.00	29.472 
02:55	16.4	16.4	16.4	83	12.2	1	2	248	0.00	29.472 
03:00	16.4	16.4	16.4	83	12.2	1	2	248	0.00	29.479 
03:05	16.4	16.4	16.4	83	12.2	1	2	248	0.00	29.479 
03:10	16.4	16.4	16.4	83	12.2	1	2	248	0.00	29.479 
03:15	16.2	16.2	16.2	83	12.0	1	2	248	0.00	29.481 
03:20	16.2	16.2	16.2	83	12.0	1	2	248	0.00	29.481 
03:25	16.2	16.2	16.2	83	12.0	1	2	248	0.00	29.481 
03:30	16.2	16.2	16.2	83	12.0	1	2	248	0.00	29.485 
03:35	16.2	16.2	16.2	83	12.0	1	2	248	0.00	29.485 
03:40	16.2	16.2	16.2	83	12.0	0	1	248	0.00	29.485 
03:45	16.2	16.2	16.2	83	12.0	1	2	248	0.00	29.485 
03:50	16.1	16.1	16.1	83	11.9	0	2	248	0.00	29.485 
03:55	16.1	16.1	16.1	83	11.9	0	1	248	0.00	29.485 
04:00	16.1	16.1	16.1	83	11.9	0	2	248	0.00	29.488 
04:05	15.9	15.9	15.9	83	11.7	0	2	248	0.00	29.488 
04:10	15.9	15.9	15.9	83	11.7	0	2	248	0.00	29.488 
04:15	15.7	15.7	15.7	83	11.5	1	2	248	0.00	29.496 
04:20	15.7	15.7	15.7	83	11.5	1	3	248	0.00	29.496 
04:25	15.7	15.7	15.7	84	11.7	1	2	248	0.00	29.496 
04:30	15.6	15.6	15.6	84	11.6	1	2	248	0.00	29.500 
04:35	15.6	15.6	15.6	84	11.6	1	3	248	0.00	29.500 
04:40	15.6	15.6	15.6	84	11.6	1	2	248	0.00	29.500 
04:45	15.4	15.4	15.4	84	11.4	1	2	248	0.00	29.508 
04:50	15.4	15.4	15.4	84	11.4	1	2	248	0.00	29.508 
04:55	15.4	15.4	15.4	84	11.4	1	3	248	0.00	29.508 
05:00	15.4	15.4	15.4	84	11.4	1	2	248	0.00	29.513 
05:05	15.6	15.6	15.6	84	11.6	1	2	248	0.00	29.513 
05:10	15.7	15.7	15.7	84	11.7	1	2	248	0.00	29.513 
05:15	15.7	15.7	15.7	84	11.7	1	2	248	0.00	29.516 
05:20	15.7	15.7	15.7	84	11.7	0	2	248	0.00	29.516 
05:25	15.7	15.7	15.7	84	11.7	1	2	248	0.00	29.516 
05:30	15.7	15.7	15.7	84	11.7	1	2	248	0.00	29.523 
05:35	15.7	15.7	15.7	84	11.7	1	2	248	0.00	29.523 
05:40	15.7	15.7	15.7	84	11.7	1	3	248	0.00	29.523 
05:45	15.7	15.7	15.7	84	11.7	1	3	248	0.00	29.529 
05:50	15.7	15.7	15.7	84	11.7	2	4	270	0.00	29.529 
05:55	15.7	15.7	15.7	84	11.7	2	4	270	0.00	29.529 
06:00	15.7	15.7	15.7	83	11.5	1	3	248	0.00	29.534 
06:05	15.7	15.7	15.7	83	11.5	2	5	270	0.00	29.534 
06:10	15.6	15.6	15.6	83	11.4	1	4	270	0.00	29.534 
06:15	15.6	15.6	15.6	83	11.4	1	3	270	0.00	29.541 
06:20	15.4	15.4	15.4	83	11.2	1	4	270	0.00	29.541 
06:25	15.4	15.4	15.4	83	11.2	1	4	270	0.00	29.541 
06:30	15.2	15.2	15.2	82	10.7	1	3	270	0.00	29.550 
06:35	15.1	15.1	15.1	82	10.6	1	3	270	0.00	29.550 
06:40	15.1	15.1	15.1	82	10.6	2	3	248	0.00	29.550 
06:45	14.9	14.9	14.9	82	10.4	2	3	248	0.00	29.561 
06:50	14.6	14.6	14.6	81	9.9	1	4	248	0.00	29.561 
06:55	14.4	14.4	14.4	81	9.7	1	3	248	0.00	29.561 
07:00	14.4	14.4	14.4	81	9.7	2	6	248	0.00	29.573 
07:05	14.3	14.3	14.3	81	9.6	1	3	248	0.00	29.573 
07:10	14.3	14.3	14.3	81	9.6	1	3	270	0.00	29.573 
07:15	14.3	14.3	14.3	81	9.6	1	2	270	0.00	29.581 
07:20	14.4	14.4	14.4	81	9.7	2	3	270	0.00	29.581 
07:25	14.4	14.4	14.4	80	9.4	2	6	248	0.00	29.581 
07:30	14.4	14.4	14.4	80	9.4	1	5	248	0.00	29.592 
07:35	14.4	14.4	14.4	80	9.4	2	6	270	0.00	29.592 
07:40	14.4	14.4	14.4	80	9.4	2	6	248	0.00	29.592 
07:45	14.3	14.3	14.3	80	9.3	1	5	270	0.00	29.597 
07:50	14.3	14.3	14.3	80	9.3	1	3	270	0.00	29.597 
07:55	14.3	14.3	14.3	80	9.3	2	6	248	0.00	29.597 
08:00	14.1	14.1	14.1	80	9.1	2	4	248	0.00	29.607 
08:05	14.0	14.0	14.0	80	9.0	1	2	248	0.00	29.607 
08:10	14.0	14.0	14.0	81	9.3	1	3	248	0.00	29.607 
08:15	13.8	13.8	13.8	81	9.1	1	4	248	0.00	29.613 
08:20	13.6	13.6	13.6	81	8.9	1	2	225	0.00	29.613 
08:25	13.6	13.6	13.6	81	8.9	1	2	225	0.00	29.613 
08:30	13.5	13.5	13.5	81	8.8	1	2	225	0.00	29.621 
08:35	13.5	13.5	13.5	81	8.8	1	4	225	0.00	29.621 
08:40	13.5	13.5	13.5	81	8.8	1	3	270	0.00	29.621 
08:45	13.5	13.5	13.5	81	8.8	1	3	270	0.00	29.632 
08:50	13.6	13.6	13.6	81	8.9	1	4	248	0.00	29.632 
08:55	13.6	13.6	13.6	81	8.9	1	2	248	0.00	29.632 
09:00	13.8	13.8	13.8	81	9.1	1	4	270	0.00	29.642 
09:05	14.1	14.1	14.1	81	9.4	1	3	270	0.00	29.642 
09:10	14.4	14.4	14.4	81	9.7	1	4	270	0.00	29.642 
09:15	14.6	14.6	14.6	80	9.6	1	4	248	0.00	29.644 
09:20	14.6	14.6	14.6	79	9.3	1	3	270	0.00	29.644 
09:25	14.8	14.8	14.8	79	9.5	1	4	248	0.00	29.644 
09:30	14.9	14.9	14.9	79	9.6	2	4	248	0.00	29.655 
09:35	15.1	15.1	15.1	79	9.8	1	3	270	0.00	29.655 
09:40	15.2	15.2	15.2	79	9.9	1	3	270	0.00	29.655 
09:45	15.2	15.2	15.2	78	9.6	1	3	248	0.00	29.663 
09:50	15.2	15.2	15.2	78	9.6	2	3	248	0.00	29.663 
09:55	15.2	15.2	15.2	78	9.6	1	4	248	0.00	29.663 
10:00	15.4	15.4	15.4	78	9.8	2	4	248	0.00	29.673 
10:05	15.6	15.6	15.6	78	10.0	1	3	248	0.00	29.673 
10:10	15.7	15.7	15.7	78	10.1	1	4	270	0.00	29.673 
10:15	15.7	15.7	15.7	78	10.1	2	3	270	0.00	29.680 
10:20	15.7	15.7	15.7	77	9.8	2	5	270	0.00	29.680 
10:25	15.7	15.7	15.7	77	9.8	2	4	270	0.00	29.680 
10:30	15.9	15.9	15.9	77	10.0	1	3	292	0.00	29.690 
10:35	16.1	16.1	16.1	77	10.2	2	3	292	0.00	29.690 
10:40	16.1	16.1	16.1	77	10.2	3	5	270	0.00	29.690 
10:45	15.7	15.7	15.7	78	10.1	2	5	270	0.00	29.704 
10:50	15.4	15.4	15.4	78	9.8	3	5	270	0.00	29.704 
10:55	15.2	15.2	15.2	79	9.9	3	6	270	0.00	29.704 
11:00	15.2	15.2	15.2	80	10.2	2	6	248	0.00	29.710 
11:05	15.4	15.4	15.4	80	10.4	2	3	270	0.00	29.710 
11:10	15.4	15.4	15.4	81	10.6	2	4	248	0.00	29.710 
11:15	15.6	15.6	15.6	81	10.8	2	5	248	0.00	29.715 
11:20	15.9	15.9	15.9	81	11.1	1	4	248	0.00	29.715 
11:25	16.1	16.1	16.1	81	11.3	2	5	248	0.00	29.715 
11:30	16.1	16.1	16.1	80	11.0	2	3	248	0.00	29.722 
11:35	16.2	16.2	16.2	80	11.1	2	5	270	0.00	29.722 
11:40	16.5	16.5	16.5	81	11.7	1	4	292	0.00	29.722 
11:45	16.5	16.5	16.5	80	11.4	2	5	270	0.00	29.723 
11:50	16.7	16.7	16.7	80	11.6	2	5	270	0.00	29.723 
11:55	17.0	17.0	17.0	79	11.6	2	5	248	0.00	29.723 
12:00	16.9	16.9	16.9	78	11.3	3	6	270	0.00	29.731 
12:05	16.9	16.9	16.9	76	10.7	2	4	270	0.00	29.731 
12:10	17.0	17.0	17.0	76	10.8	3	6	270	0.00	29.731 
12:15	16.9	16.9	16.9	75	10.4	3	6	292	0.00	29.737 
12:20	16.9	16.9	16.9	74	10.1	2	5	270	0.00	29.737 
12:25	17.0	17.0	17.0	74	10.2	3	5	270	0.00	29.737 
12:30	17.2	17.2	17.2	75	10.7	2	6	248	0.00	29.739 
12:35	17.5	17.5	17.5	74	10.7	3	5	270	0.00	29.739 
12:40	17.5	17.5	17.5	73	10.3	3	6	270	0.00	29.739 
12:45	17.7	17.7	17.7	73	10.5	2	6	248	0.00	29.743 
12:50	18.1	18.1	18.1	74	11.2	2	4	248	0.00	29.743 
12:55	18.6	18.6	18.6	73	11.4	2	4	270	0.00	29.743 
13:00	18.4	18.4	18.4	73	11.2	2	5	270	0.00	29.749 
13:05	18.8	18.8	18.8	73	11.6	2	4	270	0.00	29.749 
13:10	18.9	18.9	18.9	73	11.7	3	7	270	0.00	29.749 
13:15	19.1	19.1	19.1	73	11.9	2	5	270	0.00	29.751 
13:20	19.1	19.1	19.1	72	11.6	3	5	270	0.00	29.751 
13:25	19.2	19.2	19.2	73	12.0	3	6	270	0.00	29.751 
13:30	19.5	19.5	19.5	73	12.3	2	4	270	0.00	29.752 
13:35	19.9	19.9	19.9	72	12.4	3	5	270	0.00	29.752 
13:40	20.3	20.3	20.3	73	13.1	2	5	270	0.00	29.752 
13:45	21.0	21.0	21.0	73	13.7	2	6	270	0.00	29.757 
13:50	21.3	21.3	21.3	72	13.7	2	4	270	0.00	29.757 
13:55	20.8	20.8	20.8	71	12.9	2	5	338	0.00	29.757 
14:00	21.3	21.3	21.3	73	14.0	2	5	270	0.00	29.766 
14:05	22.2	22.2	22.2	72	14.6	2	5	248	0.00	29.766 
14:10	22.4	22.4	22.4	70	14.1	2	4	270	0.00	29.766 
14:15	22.1	22.1	22.1	69	13.5	1	3	270	0.00	29.776 
14:20	21.9	21.9	21.9	69	13.3	2	4	270	0.00	29.776 
14:25	21.6	21.6	21.6	69	13.0	1	4	270	0.00	29.776 
14:30	21.6	21.6	21.6	70	13.4	2	4	270	0.00	29.783 
14:35	21.6	21.6	21.6	71	13.7	2	4	270	0.00	29.783 
14:40	22.1	22.1	22.1	70	13.8	2	6	338	0.00	29.783 
14:45	22.7	22.7	22.7	71	14.7	2	4	270	0.00	29.794 
14:50	23.0	23.0	23.0	70	14.7	2	3	292	0.00	29.794 
14:55	23.0	23.0	23.0	70	14.7	1	4	292	0.00	29.794 
15:00	22.9	22.9	22.9	69	14.3	2	3	270	0.00	29.804 
15:05	22.9	22.9	22.9	69	14.3	2	4	248	0.00	29.804 
15:10	22.9	22.9	22.9	70	14.6	2	4	248	0.00	29.804 
15:15	22.9	22.9	22.9	70	14.6	3	5	270	0.00	29.815 
15:20	23.2	23.2	23.2	70	14.9	3	4	248	0.00	29.815 
15:25	22.9	22.9	22.9	69	14.3	2	4	292	0.00	29.815 
15:30	22.5	22.5	22.5	70	14.2	2	4	292	0.00	29.829 
15:35	22.1	22.1	22.1	72	14.5	2	6	270	0.00	29.829 
15:40	21.8	21.8	21.8	73	14.5	2	4	270	0.00	29.829 
15:45	21.4	21.4	21.4	74	14.4	3	4	248	0.00	29.843 
15:50	21.1	21.1	21.1	76	14.7	2	5	270	0.00	29.843 
15:55	20.8	20.8	20.8	77	14.7	2	4	248	0.00	29.843 
16:00	20.6	20.6	20.6	78	14.8	2	3	270	0.00	29.858 
16:05	20.8	20.8	20.8	79	15.3	0	2	315	0.00	29.858 
16:10	21.0	21.0	21.0	80	15.8	1	3	248	0.00	29.858 
16:15	21.0	21.0	21.0	80	15.8	1	5	248	0.00	29.862 
16:20	20.8	20.8	20.8	80	15.6	1	2	248	0.00	29.862 
16:25	20.6	20.6	20.6	81	15.7	1	3	248	0.00	29.862 
16:30	20.5	20.5	20.5	81	15.6	1	3	248	0.00	29.871 
16:35	20.5	20.5	20.5	82	15.9	1	4	248	0.00	29.871 
16:40	20.3	20.3	20.3	82	15.7	1	2	248	0.00	29.871 
16:45	20.5	20.5	20.5	82	15.9	0	2	248	0.00	29.878 
16:50	20.5	20.5	20.5	82	15.9	1	3	248	0.00	29.878 
16:55	20.3	20.3	20.3	82	15.7	2	4	248	0.00	29.878 
17:00	20.2	20.2	20.2	81	15.3	2	4	270	0.00	29.892 
17:05	20.2	20.2	20.2	80	15.0	1	3	270	0.00	29.892 
17:10	20.2	20.2	20.2	79	14.8	2	4	292	0.00	29.892 
17:15	20.2	20.2	20.2	79	14.8	1	3	270	0.00	29.897 
17:20	20.2	20.2	20.2	78	14.5	2	3	270	0.00	29.897 
17:25	20.3	20.3	20.3	77	14.3	1	2	270	0.00	29.897 
17:30	20.3	20.3	20.3	77	14.3	1	5	270	0.00	29.907 
17:35	20.3	20.3	20.3	76	14.0	1	4	270	0.00	29.907 
17:40	20.3	20.3	20.3	75	13.7	1	4	270	0.00	29.907 
17:45	20.3	20.3	20.3	75	13.7	2	3	270	0.00	29.912 
17:50	20.3	20.3	20.3	74	13.4	2	4	270	0.00	29.912 
17:55	20.3	20.3	20.3	74	13.4	1	3	248	0.00	29.912 
18:00	20.3	20.3	20.3	74	13.4	0	2	248	0.00	29.925 
18:05	20.2	20.2	20.2	74	13.3	1	2	248	0.00	29.925 
18:10	19.9	19.9	19.9	74	13.0	1	3	248	0.00	29.925 
18:15	19.7	19.7	19.7	74	12.8	1	4	248	0.00	29.932 
18:20	19.4	19.4	19.4	75	12.8	1	3	270	0.00	29.932 
18:25	19.1	19.1	19.1	75	12.5	1	3	248	0.00	29.932 
18:30	18.8	18.8	18.8	76	12.5	1	4	248	0.00	29.943 
18:35	18.6	18.6	18.6	76	12.3	1	2	248	0.00	29.943 
18:40	18.4	18.4	18.4	77	12.4	2	4	248	0.00	29.943 
18:45	18.3	18.3	18.3	78	12.6	1	3	270	0.00	29.949 
18:50	18.1	18.1	18.1	78	12.4	0	2	248	0.00	29.949 
18:55	18.0	18.0	18.0	78	12.3	0	3	248	0.00	29.949 
19:00	17.8	17.8	17.8	79	12.4	0	3	248	0.00	29.957 
19:05	17.7	17.7	17.7	79	12.3	0	3	248	0.00	29.957 
19:10	17.5	17.5	17.5	80	12.4	1	3	248	0.00	29.957 
19:15	17.5	17.5	17.5	80	12.4	0	2	248	0.00	29.963 
19:20	17.2	17.2	17.2	80	12.1	0	1	248	0.00	29.963 
19:25	17.2	17.2	17.2	81	12.4	0	1	248	0.00	29.963 
19:30	16.9	16.9	16.9	81	12.1	0	1	248	0.00	29.974 
19:35	16.7	16.7	16.7	81	11.9	0	1	248	0.00	29.974 
19:40	16.7	16.7	16.7	81	11.9	0	1	248	0.00	29.974 
19:45	16.5	16.5	16.5	81	11.7	0	0	---	0.00	29.978 
19:50	16.4	16.4	16.4	82	11.9	0	0	---	0.00	29.978 
19:55	16.2	16.2	16.2	82	11.7	0	1	248	0.00	29.978 
20:00	16.1	16.1	16.1	82	11.6	0	1	248	0.00	29.985 
20:05	16.1	16.1	16.1	83	11.9	0	1	248	0.00	29.985 
20:10	16.1	16.1	16.1	83	11.9	0	1	248	0.00	29.985 
20:15	16.1	16.1	16.1	83	11.9	0	1	248	0.00	29.989 
20:20	15.9	15.9	15.9	83	11.7	0	1	248	0.00	29.989 
20:25	15.9	15.9	15.9	84	11.9	0	1	248	0.00	29.989 
20:30	15.6	15.6	15.6	83	11.4	0	0	---	0.00	29.992 
20:35	15.4	15.4	15.4	83	11.2	0	1	248	0.00	29.992 
20:40	15.2	15.2	15.2	84	11.3	0	0	---	0.00	29.992 
20:45	15.1	15.1	15.1	84	11.2	0	1	248	0.00	29.997 
20:50	14.8	14.8	14.8	84	10.9	0	0	---	0.00	29.997 
20:55	14.6	14.6	14.6	84	10.7	0	0	---	0.00	29.997 
21:00	14.4	14.4	14.4	84	10.5	0	0	---	0.00	30.000 
21:05	14.3	14.3	14.3	84	10.4	0	0	---	0.00	30.000 
21:10	14.1	14.1	14.1	84	10.2	0	0	---	0.00	30.000 
21:15	14.0	14.0	14.0	84	10.1	0	0	---	0.00	30.004 
21:20	13.8	13.8	13.8	84	9.9	0	2	248	0.00	30.004 
21:25	13.8	13.8	13.8	84	9.9	0	1	248	0.00	30.004 
21:30	13.8	13.8	13.8	85	10.1	0	1	248	0.00	30.010 
21:35	14.0	14.0	14.0	85	10.3	1	4	248	0.00	30.010 
21:40	14.1	14.1	14.1	85	10.4	1	3	248	0.00	30.010 
21:45	14.3	14.3	14.3	85	10.6	0	1	248	0.00	30.017 
21:50	14.4	14.4	14.4	85	10.7	1	3	248	0.00	30.017 
21:55	14.6	14.6	14.6	85	10.9	1	3	248	0.00	30.017 
22:00	14.6	14.6	14.6	85	10.9	1	3	248	0.00	30.022 
22:05	14.4	14.4	14.4	85	10.7	1	2	248	0.00	30.022 
22:10	14.4	14.4	14.4	85	10.7	1	2	248	0.00	30.022 
22:15	14.3	14.3	14.3	85	10.6	0	2	248	0.00	30.028 
22:20	14.1	14.1	14.1	85	10.4	0	2	248	0.00	30.028 
22:25	14.1	14.1	14.1	85	10.4	0	1	248	0.00	30.028 
22:30	14.0	14.0	14.0	85	10.3	0	1	248	0.00	30.029 
22:35	13.8	13.8	13.8	85	10.1	0	1	248	0.00	30.029 
22:40	13.8	13.8	13.8	85	10.1	0	1	248	0.00	30.029 
22:45	13.6	13.6	13.6	85	9.9	0	1	248	0.00	30.030 
22:50	13.3	13.3	13.3	85	9.7	0	0	---	0.00	30.030 
22:55	13.1	13.1	13.1	85	9.5	0	1	248	0.00	30.030 
23:00	12.8	12.8	12.8	85	9.2	0	1	248	0.00	30.037 
23:05	12.6	12.6	12.6	85	9.0	0	0	---	0.00	30.037 
23:10	12.4	12.4	12.4	85	8.8	0	0	---	0.00	30.037 
23:15	12.3	12.3	12.3	85	8.7	0	1	248	0.00	30.042 
23:20	12.3	12.3	12.3	86	8.9	0	0	---	0.00	30.042 
23:25	12.3	12.3	12.3	86	8.9	0	0	---	0.00	30.042 
23:30	12.1	12.1	12.1	86	8.7	0	0	---	0.00	30.047 
23:35	12.1	12.1	12.1	86	8.7	0	1	248	0.00	30.047 
23:40	12.1	12.1	12.1	86	8.7	0	0	---	0.00	30.047 
23:45	12.1	12.1	12.1	86	8.7	0	2	248	0.00	30.056 
23:50	12.3	12.3	12.3	86	8.9	0	1	248	0.00	30.056 
23:55	12.3	12.3	12.3	86	8.9	0	1	248	0.00	30.056 

CoCoRaHS
IN-AL-39
A2 Web Hosting
Creative Commons License
GoDaddy
search engine by freefind advanced

loaded 2018-11-13 01:57:46 • last modified 2010-11-18 10:43:29
Privacy PolicyDisclaimer
• wx.awcolley.com is powered by PmWiki v.2002016 •
• all content (unless otherwise noted) © 2018 A W Colley